KMKG/MKG METAR and TAF weather

Enter ICAO airport designator
Station Type Date Time Source
KMKG METAR 2021/06/24 04:55 UTC NOAA

KMKG 240455Z AUTO 18013G29KT 10SM BKN090 22/09 A3001 RMK AO2 PK WND 18029/0447 SLP161 T02170094 402220106


Station Type Date Time Source
KMKG Decoded METAR 2021/06/24 04:55 UTC NOAA

MUSKEGON COUNTY AIRPORT, MI, United States (KMKG) 43-10N 086-14W 191M
Jun 24, 2021 - 12:55 AM EDT / 2021.06.24 0455 UTC
Wind: from the S (180 degrees) at 15 MPH (13 KT) gusting to 33 MPH (29 KT):0
Visibility: 10 mile(s):0
Sky conditions: mostly cloudy
Temperature: 71.1 F (21.7 C)
Dew Point: 48.9 F (9.4 C)
Relative Humidity: 45%
Pressure (altimeter): 30.01 in. Hg (1016 hPa)
ob: KMKG 240455Z AUTO 18013G29KT 10SM BKN090 22/09 A3001 RMK AO2 PK WND 18029/0447 SLP161 T02170094 402220106
cycle: 5

Station Type Date Time Source
KMKG TAF 2021/06/23 18:42 UTC NOAA

TAF KMKG 231739Z 2318/2418 20014G25KT P6SM VCSH BKN060
FM232200 20017G28KT P6SM -SHRA BKN035
FM240100 18015G30KT P6SM BKN070
FM241500 19015G28KT 5SM SHRA BKN050

Example: see airport list